Aérodrome :
LOGIN :

S'inscrire | Disclaimer

   EN    FR    IT 

 










Légende :    VFR   VFR Marginal   IFR   IFR Intensif   IFR Très Intensif
Visi : 
Plafond : 
>= 8 km
>= 3000ft
5 à 8 km
1000 à 3000 ft
1500m à 5 km
500 à 1000 ft
800 à 1500m
200 à 500 ft
< 800m
< 200 ft
Symboles :   Orages  Brouillard  Fortes neiges  Fortes précipitations  Vent > 20 kt
SIGMETs :   Divers  Orages  Givrage  Turbulence  Onde Orograph.  Cendres Volcan.







- Altitude de l'aérodrome : 34 ft
- Code IATA : BLK
- Voir les cartes d'approche


EGNH - Blackpool

METARs EXPIRÉS :
  • 241420Z 23015KT 9999 FEW016 18/14 Q1011
  • 241350Z 23015KT 9999 FEW015 18/13 Q1011
  • 241320Z 24017KT 9999 FEW030 17/13 Q1011
  • 241250Z 24016KT 9999 FEW015 BKN036 17/12 Q1011
  • 241220Z 24017KT 9999 SCT039 17/13 Q1012
  • 241150Z 24016KT 9999 FEW034 BKN047 16/12 Q1012

Prévision TAF périmée.
ATIS : +44 1253 343 434 (x8315)
Pas de NOTAMs connus pour ce terrain.



MET'MAP, la Météo Aéronautique d'un coup d'oeil ! - Copyright ORBIFLY Décembre 2007 - Disclaimer

ORBIFLY MET'MAP TEAM :

Programmation & Développement : Alexandra Zaïnal
Conception & Développement : Baudouin d'Aumeries
Co-Programmation & Développement : Marc-Olivier Méhu
Soutien technique & logistique : Manuel Goepfert

Contact : metmap@orbifly.com




SOURCES & CREDITS :

   NOAA